Time;durP1;ratioP1;P1;durP2;ratioP2;P2;SDS_P1;SDS_P2;PMS_P1;PMS_P2;Temp;Humidity;BMP_temperature;BMP_pressure;BME280_temperature;BME280_humidity;BME280_pressure;Samples;Min_cycle;Max_cycle;Signal;HPM_P1;HPM_P2
2022/09/19 00:02:07;;;;;;;0.40;0.20;;;;;;;14.16;67.92;95353.28;4970427;28;20925;-57
2022/09/19 00:04:35;;;;;;;0.40;0.20;;;;;;;13.40;66.11;95284.31;4970322;28;20438;-58
2022/09/19 00:07:05;;;;;;;0.40;0.20;;;;;;;13.53;67.04;95317.44;4970417;28;20434;-57
2022/09/19 00:09:34;;;;;;;0.40;0.20;;;;;;;12.03;63.99;95164.69;4970249;28;20437;-58
2022/09/19 00:12:03;;;;;;;0.40;0.20;;;;;;;13.44;67.34;95354.53;4970367;28;20433;-58
2022/09/19 00:14:33;;;;;;;0.40;0.20;;;;;;;13.77;66.69;95366.09;4969962;28;20441;-58
2022/09/19 00:17:03;;;;;;;0.40;0.20;;;;;;;13.45;65.65;95328.72;4969987;28;20438;-58
2022/09/19 00:19:32;;;;;;;0.40;0.20;;;;;;;12.98;65.94;95337.53;4970092;28;20443;-58
2022/09/19 00:22:01;;;;;;;0.40;0.20;;;;;;;13.31;63.81;95339.25;4970433;28;20426;-58
2022/09/19 00:24:45;;;;;;;0.40;0.20;;;;;;;13.55;64.21;95347.22;4970411;28;20448;-58
2022/09/19 00:27:16;;;;;;;0.40;0.20;;;;;;;13.23;63.35;95266.16;4969834;28;20435;-58
2022/09/19 00:29:45;;;;;;;0.40;0.20;;;;;;;13.23;66.36;95308.75;4969798;28;20754;-58
2022/09/19 00:32:14;;;;;;;0.40;0.20;;;;;;;13.42;65.76;95367.34;4969877;28;20934;-58
2022/09/19 00:34:45;;;;;;;0.40;0.20;;;;;;;13.76;69.66;95346.66;4970121;28;20430;-58
2022/09/19 00:37:13;;;;;;;0.40;0.30;;;;;;;13.72;66.90;95353.63;4969828;28;20433;-58
2022/09/19 00:39:43;;;;;;;0.40;0.20;;;;;;;13.89;67.90;95358.44;4969995;28;20478;-58
2022/09/19 00:42:16;;;;;;;0.40;0.20;;;;;;;13.17;64.88;95357.81;4969938;28;20947;-58
2022/09/19 00:45:00;;;;;;;0.40;0.20;;;;;;;12.74;66.33;95282.44;4969914;28;20434;-58
2022/09/19 00:47:35;;;;;;;0.40;0.20;;;;;;;13.37;64.92;95324.81;4970022;28;20431;-58
2022/09/19 00:50:13;;;;;;;0.40;0.20;;;;;;;12.73;63.51;95214.38;4969802;28;20555;-58
2022/09/19 00:52:46;;;;;;;0.40;0.20;;;;;;;13.11;64.90;95352.81;4969756;28;20429;-58
2022/09/19 00:55:17;;;;;;;0.60;0.30;;;;;;;13.33;64.73;95343.22;4969716;28;20430;-58
2022/09/19 00:58:02;;;;;;;0.40;0.20;;;;;;;12.35;65.75;95164.84;4970760;28;20452;-58
2022/09/19 01:00:32;;;;;;;0.40;0.20;;;;;;;12.75;64.54;95304.50;4973197;28;20807;-58
2022/09/19 01:03:01;;;;;;;0.40;0.30;;;;;;;12.28;66.38;95358.41;4972741;28;20436;-58
2022/09/19 01:05:41;;;;;;;0.40;0.20;;;;;;;12.21;67.52;95352.63;4972794;28;20437;-58
2022/09/19 01:08:48;;;;;;;0.40;0.30;;;;;;;11.68;69.22;95287.09;4973095;28;20464;-58
2022/09/19 01:11:36;;;;;;;0.40;0.20;;;;;;;12.33;68.19;95309.72;4972830;28;20477;-58
2022/09/19 01:14:17;;;;;;;0.40;0.20;;;;;;;12.55;68.65;95356.03;4972807;28;20426;-58
2022/09/19 01:16:54;;;;;;;0.40;0.20;;;;;;;12.74;68.24;95346.28;4972845;28;20796;-57
2022/09/19 01:19:41;;;;;;;0.40;0.20;;;;;;;12.92;67.32;95338.66;4972995;28;20927;-57
2022/09/19 01:22:18;;;;;;;0.40;0.30;;;;;;;13.09;68.35;95349.66;4972770;28;20438;-57
2022/09/19 01:25:02;;;;;;;0.40;0.20;;;;;;;13.09;66.34;95366.41;4972678;28;20425;-58
2022/09/19 01:28:20;;;;;;;0.40;0.20;;;;;;;12.33;65.95;95262.69;4972834;28;20838;-58
2022/09/19 01:33:41;;;;;;;0.40;0.20;;;;;;;11.89;73.73;95270.00;4893141;29;20443;-57
2022/09/19 01:36:14;;;;;;;0.40;0.30;;;;;;;12.95;75.53;95356.72;4944737;28;20956;-57
2022/09/19 01:38:43;;;;;;;0.40;0.20;;;;;;;13.21;80.99;95363.34;4971801;28;20478;-57
2022/09/19 01:41:12;;;;;;;0.40;0.20;;;;;;;12.53;70.62;95344.88;4971989;28;20439;-58
2022/09/19 01:43:41;;;;;;;0.40;0.20;;;;;;;13.01;77.14;95360.88;4972176;28;20441;-58
2022/09/19 01:46:18;;;;;;;0.50;0.30;;;;;;;13.06;74.57;95364.31;4972195;28;20449;-57
2022/09/19 01:48:54;;;;;;;0.40;0.20;;;;;;;12.74;73.12;95359.56;4972127;28;20499;-57
2022/09/19 01:51:32;;;;;;;0.40;0.20;;;;;;;12.32;71.37;95285.00;4971955;28;20862;-57
2022/09/19 01:54:21;;;;;;;0.40;0.20;;;;;;;12.69;69.86;95316.28;4972390;28;20943;-57
2022/09/19 01:57:00;;;;;;;0.40;0.20;;;;;;;12.30;68.05;95265.88;4972309;28;20438;-57
2022/09/19 01:59:59;;;;;;;0.63;0.63;;;;;;;12.90;70.56;95354.09;4972010;28;20433;-57
2022/09/19 02:02:39;;;;;;;0.40;0.20;;;;;;;12.70;67.38;95361.19;4971722;28;20437;-57
2022/09/19 02:05:13;;;;;;;0.40;0.20;;;;;;;11.39;67.63;95285.16;4971884;28;20839;-57
2022/09/19 02:07:51;;;;;;;0.40;0.20;;;;;;;11.81;74.60;95360.88;4970855;28;20525;-57
2022/09/19 02:10:25;;;;;;;0.40;0.20;;;;;;;12.05;70.84;95311.28;4970523;28;20441;-57
2022/09/19 02:12:58;;;;;;;0.40;0.30;;;;;;;11.19;67.39;95234.88;4971621;28;20441;-57
2022/09/19 02:15:31;;;;;;;0.40;0.20;;;;;;;12.26;66.00;95333.97;4971611;28;20431;-57
2022/09/19 02:18:06;;;;;;;0.40;0.30;;;;;;;12.22;66.47;95377.31;4971551;28;20441;-57
2022/09/19 02:20:36;;;;;;;0.40;0.23;;;;;;;12.48;65.43;95379.50;4971427;28;20444;-57
2022/09/19 02:23:10;;;;;;;0.40;0.20;;;;;;;12.80;67.40;95370.94;4972034;28;20446;-57
2022/09/19 02:25:41;;;;;;;0.40;0.30;;;;;;;11.14;70.39;95364.09;4971533;28;20967;-57
2022/09/19 02:28:15;;;;;;;0.40;0.30;;;;;;;11.17;76.10;95225.59;4971782;28;20529;-57
2022/09/19 02:30:44;;;;;;;0.40;0.20;;;;;;;10.62;79.23;95118.03;4971218;28;20430;-57
2022/09/19 02:33:15;;;;;;;0.40;0.20;;;;;;;9.77;74.80;95074.13;4971365;28;20434;-57
2022/09/19 02:35:49;;;;;;;0.40;0.20;;;;;;;10.05;75.64;95098.13;4971292;28;20534;-57
2022/09/19 02:38:25;;;;;;;0.50;0.50;;;;;;;11.81;74.12;95368.84;4971143;28;20434;-57
2022/09/19 02:41:01;;;;;;;0.40;0.20;;;;;;;11.22;76.14;95393.50;4971319;28;20425;-57
2022/09/19 02:43:38;;;;;;;0.40;0.20;;;;;;;10.60;73.55;95390.47;4971560;28;20931;-57
2022/09/19 02:46:14;;;;;;;0.40;0.20;;;;;;;10.59;76.80;95309.38;4971404;28;20792;-58
2022/09/19 02:48:53;;;;;;;0.40;0.20;;;;;;;11.63;73.05;95388.81;4971159;28;20517;-58
2022/09/19 02:51:28;;;;;;;0.40;0.20;;;;;;;11.08;72.20;95391.72;4971135;28;20488;-57
2022/09/19 02:54:01;;;;;;;0.40;0.20;;;;;;;10.38;73.94;95308.63;4971448;28;20434;-58
2022/09/19 02:56:34;;;;;;;0.40;0.20;;;;;;;10.28;74.66;95366.91;4971238;28;20430;-57
2022/09/19 02:59:06;;;;;;;0.40;0.20;;;;;;;11.00;75.33;95389.59;4970816;28;20434;-57
2022/09/19 03:01:37;;;;;;;0.40;0.20;;;;;;;11.60;73.82;95388.56;4970863;28;20442;-57
2022/09/19 03:04:14;;;;;;;0.40;0.20;;;;;;;12.12;79.24;95388.78;4971093;28;20429;-57
2022/09/19 03:06:51;;;;;;;0.40;0.20;;;;;;;12.50;78.12;95392.50;4970901;28;20430;-57
2022/09/19 03:09:25;;;;;;;0.40;0.20;;;;;;;11.95;74.16;95359.97;4970986;28;20932;-57
2022/09/19 03:11:57;;;;;;;0.40;0.20;;;;;;;12.26;76.64;95392.44;4970790;28;20478;-57
2022/09/19 03:14:26;;;;;;;0.40;0.20;;;;;;;12.02;73.77;95370.28;4971174;28;20766;-57
2022/09/19 03:16:57;;;;;;;0.40;0.20;;;;;;;11.84;75.87;95389.53;4970726;28;20449;-57
2022/09/19 03:19:30;;;;;;;0.40;0.20;;;;;;;11.77;73.27;95389.81;4970755;28;20944;-57
2022/09/19 03:22:00;;;;;;;0.40;0.20;;;;;;;12.01;75.58;95393.41;4970335;28;20425;-57
2022/09/19 03:24:28;;;;;;;0.40;0.20;;;;;;;11.56;76.15;95403.47;4970869;28;20427;-57
2022/09/19 03:26:57;;;;;;;0.40;0.30;;;;;;;10.68;70.47;95385.41;4970423;28;20846;-57
2022/09/19 03:29:25;;;;;;;0.40;0.30;;;;;;;11.12;72.40;95398.84;4970789;28;20836;-57
2022/09/19 03:31:53;;;;;;;0.40;0.20;;;;;;;11.76;75.44;95401.53;4970219;28;20482;-57
2022/09/19 03:34:22;;;;;;;0.40;0.20;;;;;;;12.12;77.16;95399.44;4970293;28;20426;-57
2022/09/19 03:36:52;;;;;;;0.40;0.20;;;;;;;12.28;72.22;95394.81;4970488;28;20448;-57
2022/09/19 03:39:20;;;;;;;0.40;0.30;;;;;;;11.00;70.69;95401.00;4970089;28;20995;-57
2022/09/19 03:41:50;;;;;;;0.40;0.20;;;;;;;10.99;75.64;95404.72;4970360;28;20437;-57
2022/09/19 03:44:19;;;;;;;0.40;0.20;;;;;;;10.77;70.95;95407.69;4970454;28;20445;-57
2022/09/19 03:46:48;;;;;;;0.40;0.27;;;;;;;11.24;71.39;95401.19;4970651;28;20442;-57
2022/09/19 03:49:17;;;;;;;0.40;0.20;;;;;;;11.30;72.91;95325.81;4970432;28;20433;-57
2022/09/19 03:51:46;;;;;;;0.40;0.20;;;;;;;11.95;71.48;95385.72;4969958;28;20473;-57
2022/09/19 03:54:16;;;;;;;0.40;0.27;;;;;;;11.90;70.74;95369.84;4970076;28;20431;-56
2022/09/19 03:56:44;;;;;;;0.40;0.30;;;;;;;12.07;70.61;95372.88;4970448;28;20795;-56
2022/09/19 03:59:13;;;;;;;0.40;0.20;;;;;;;12.51;83.27;95402.88;4970276;28;20947;-56
2022/09/19 04:01:41;;;;;;;0.70;0.70;;;;;;;12.26;72.38;95396.94;4970160;28;20449;-57
2022/09/19 04:04:10;;;;;;;0.40;0.20;;;;;;;11.57;68.65;95367.88;4969967;28;20422;-56
2022/09/19 04:06:40;;;;;;;4.33;0.30;;;;;;;10.91;69.42;95401.81;4970397;28;20453;-56
2022/09/19 04:09:08;;;;;;;0.40;0.20;;;;;;;11.16;77.07;95399.88;4969967;28;20414;-56
2022/09/19 04:11:41;;;;;;;0.60;0.30;;;;;;;11.42;72.07;95408.56;4970371;28;20430;-57
2022/09/19 04:14:10;;;;;;;0.40;0.20;;;;;;;11.79;70.57;95393.00;4969839;28;20966;-56
2022/09/19 04:16:38;;;;;;;0.40;0.20;;;;;;;11.74;68.20;95395.69;4970186;28;20843;-58
2022/09/19 04:19:10;;;;;;;0.60;0.40;;;;;;;10.99;68.87;95399.41;4969713;28;20430;-57
2022/09/19 04:21:41;;;;;;;0.40;0.20;;;;;;;11.11;74.23;95317.66;4970265;28;20430;-57
2022/09/19 04:24:10;;;;;;;0.40;0.20;;;;;;;12.07;70.72;95391.50;4970117;28;20422;-57
2022/09/19 04:26:43;;;;;;;0.40;0.20;;;;;;;12.10;65.95;95381.13;4969979;28;20812;-56
2022/09/19 04:29:11;;;;;;;0.50;0.50;;;;;;;12.46;68.45;95386.94;4970006;28;20434;-57
2022/09/19 04:31:40;;;;;;;0.40;0.30;;;;;;;12.51;66.83;95394.88;4969294;28;20426;-56
2022/09/19 04:34:14;;;;;;;0.40;0.20;;;;;;;12.55;65.88;95385.28;4972578;28;20898;-56
2022/09/19 04:36:43;;;;;;;0.40;0.40;;;;;;;12.58;66.34;95379.41;4972803;28;20919;-56
2022/09/19 04:39:12;;;;;;;0.40;0.20;;;;;;;12.21;67.06;95339.31;4972334;28;20489;-57
2022/09/19 04:41:42;;;;;;;0.40;0.20;;;;;;;12.54;67.27;95383.69;4973135;28;20441;-57
2022/09/19 04:44:11;;;;;;;0.40;0.20;;;;;;;12.44;66.56;95393.63;4972455;28;20441;-61
2022/09/19 04:46:41;;;;;;;0.40;0.20;;;;;;;13.21;100.00;95395.28;4972883;28;20433;-62
2022/09/19 04:49:09;;;;;;;0.40;0.30;;;;;;;14.12;97.27;95378.91;4972865;28;20487;-62
2022/09/19 04:51:38;;;;;;;0.50;0.30;;;;;;;13.74;86.77;95327.50;4972422;28;20414;-62
2022/09/19 04:54:07;;;;;;;0.50;0.30;;;;;;;14.20;90.07;95402.25;4972649;28;20481;-62
2022/09/19 04:56:35;;;;;;;0.60;0.60;;;;;;;14.44;84.72;95391.53;4971221;28;20434;-62
2022/09/19 04:59:05;;;;;;;0.47;0.33;;;;;;;14.45;83.57;95387.75;4971644;28;20438;-61
2022/09/19 05:01:35;;;;;;;0.40;0.30;;;;;;;14.66;80.52;95394.34;4972459;28;20433;-62
2022/09/19 05:04:04;;;;;;;0.40;0.20;;;;;;;14.71;80.32;95404.94;4972525;28;20954;-61
2022/09/19 05:06:32;;;;;;;0.57;0.47;;;;;;;14.86;76.45;95402.00;4972614;28;20426;-60
2022/09/19 05:09:00;;;;;;;0.50;0.50;;;;;;;15.24;76.46;95398.09;4972540;28;20434;-61
2022/09/19 05:11:29;;;;;;;0.40;0.37;;;;;;;15.66;76.45;95398.94;4972696;28;20430;-61
2022/09/19 05:13:58;;;;;;;0.60;0.27;;;;;;;15.63;74.26;95396.84;4972432;28;20489;-60
2022/09/19 05:16:28;;;;;;;0.57;0.30;;;;;;;15.40;68.95;95397.81;4972541;28;20433;-60
2022/09/19 05:18:56;;;;;;;0.47;0.30;;;;;;;15.74;72.03;95398.19;4972080;28;20862;-60
2022/09/19 05:21:24;;;;;;;0.90;0.90;;;;;;;15.90;70.01;95404.81;4972120;28;20591;-60
2022/09/19 05:23:54;;;;;;;0.50;0.40;;;;;;;15.94;70.07;95399.69;4972193;28;20464;-60
2022/09/19 05:26:22;;;;;;;0.40;0.30;;;;;;;15.14;68.64;95405.50;4972338;28;20436;-60
2022/09/19 05:28:51;;;;;;;0.40;0.20;;;;;;;15.08;70.61;95393.34;4972355;28;20430;-60
2022/09/19 05:31:20;;;;;;;0.40;0.20;;;;;;;14.63;69.85;95402.94;4972487;28;20431;-61
2022/09/19 05:33:49;;;;;;;0.40;0.20;;;;;;;15.12;71.09;95397.81;4972276;28;20486;-61
2022/09/19 05:36:18;;;;;;;0.50;0.40;;;;;;;14.17;63.10;95407.34;4971751;28;20450;-64
2022/09/19 05:38:46;;;;;;;0.57;0.57;;;;;;;14.10;73.16;95398.94;4972013;28;20485;-65
2022/09/19 05:41:16;;;;;;;0.60;0.60;;;;;;;15.17;69.96;95403.06;4970900;28;20446;-65
2022/09/19 05:43:44;;;;;;;0.43;0.30;;;;;;;15.38;68.06;95408.78;4972091;28;20816;-65
2022/09/19 05:46:13;;;;;;;0.50;0.40;;;;;;;15.92;69.25;95401.84;4972468;28;20452;-64
2022/09/19 05:48:41;;;;;;;0.60;0.43;;;;;;;15.33;68.23;95408.09;4972559;28;20432;-64
2022/09/19 05:51:11;;;;;;;1.47;0.30;;;;;;;15.58;66.79;95391.59;4971833;28;20446;-63
2022/09/19 05:53:54;;;;;;;0.50;0.50;;;;;;;16.67;65.14;95389.41;4971673;28;20577;-65
2022/09/19 05:56:23;;;;;;;0.40;0.30;;;;;;;17.46;63.19;95382.25;4971794;28;20431;-65
2022/09/19 05:58:56;;;;;;;0.40;0.30;;;;;;;17.35;58.17;95386.31;4971906;28;20924;-64
2022/09/19 06:01:24;;;;;;;0.83;0.83;;;;;;;16.05;61.02;95246.75;4971836;28;20950;-63
2022/09/19 06:03:53;;;;;;;0.40;0.30;;;;;;;17.86;58.75;95392.94;4971647;28;20861;-64
2022/09/19 06:06:23;;;;;;;0.40;0.30;;;;;;;18.04;58.20;95381.13;4971595;28;20445;-63
2022/09/19 06:08:57;;;;;;;0.50;0.30;;;;;;;18.48;52.62;95388.91;4972088;28;20431;-62
2022/09/19 06:11:25;;;;;;;0.40;0.20;;;;;;;18.31;55.85;95380.84;4971396;28;20446;-61
2022/09/19 06:16:41;;;;;;;0.40;0.20;;;;;;;18.51;51.98;95388.28;4971809;28;20439;-60
2022/09/19 06:19:10;;;;;;;1.20;0.53;;;;;;;17.52;51.13;95386.41;4971365;28;20427;-61
2022/09/19 06:21:39;;;;;;;0.60;0.40;;;;;;;16.70;52.69;95388.00;4971638;28;20431;-61
2022/09/19 06:24:08;;;;;;;0.93;0.93;;;;;;;16.01;54.13;95387.47;4971358;28;20430;-61
2022/09/19 06:26:37;;;;;;;0.60;0.40;;;;;;;15.79;58.24;95368.69;4971806;28;20431;-61
2022/09/19 06:29:06;;;;;;;0.50;0.30;;;;;;;15.26;57.48;95403.13;4971469;28;20958;-66
2022/09/19 06:31:36;;;;;;;0.50;0.33;;;;;;;14.94;58.54;95395.19;4971395;28;20445;-65
2022/09/19 06:34:05;;;;;;;0.50;0.30;;;;;;;15.53;58.10;95373.00;4971355;28;20481;-64
2022/09/19 06:36:34;;;;;;;0.40;0.40;;;;;;;15.12;58.32;95395.13;4971846;28;20793;-64
2022/09/19 06:39:04;;;;;;;0.50;0.50;;;;;;;15.42;59.03;95403.66;4971111;28;20470;-63
2022/09/19 06:41:32;;;;;;;0.53;0.53;;;;;;;15.31;58.71;95402.25;4971385;28;20427;-64
2022/09/19 06:44:01;;;;;;;0.40;0.30;;;;;;;16.07;58.22;95390.81;4971204;28;20430;-64
2022/09/19 06:46:31;;;;;;;0.70;0.50;;;;;;;16.45;55.78;95395.53;4970943;28;20488;-66
2022/09/19 06:49:01;;;;;;;0.40;0.40;;;;;;;17.36;54.16;95384.41;4970968;28;20438;-67
2022/09/19 06:51:30;;;;;;;0.50;0.30;;;;;;;17.29;53.25;95384.88;4971222;28;20453;-66
2022/09/19 06:53:58;;;;;;;0.40;0.30;;;;;;;18.19;52.43;95383.38;4970949;28;20505;-63
2022/09/19 06:56:28;;;;;;;1.33;1.23;;;;;;;18.41;50.63;95380.53;4970513;28;20431;-63
2022/09/19 06:58:56;;;;;;;0.47;0.30;;;;;;;18.37;50.21;95375.00;4971048;28;20442;-63
2022/09/19 07:01:26;;;;;;;1.23;0.40;;;;;;;18.34;49.85;95380.22;4971390;28;20426;-63
2022/09/19 07:03:54;;;;;;;0.40;0.30;;;;;;;19.11;49.09;95372.03;4970720;28;20439;-63
2022/09/19 07:06:22;;;;;;;0.40;0.20;;;;;;;19.44;48.76;95381.13;4970732;28;20497;-54
2022/09/19 07:08:51;;;;;;;1.17;0.40;;;;;;;19.93;52.44;95376.91;4970634;28;20439;-56
2022/09/19 07:11:19;;;;;;;5.80;2.10;;;;;;;19.84;48.71;95376.16;4971067;28;20434;-56
2022/09/19 07:13:53;;;;;;;0.50;0.30;;;;;;;19.91;48.12;95362.97;4970566;28;20475;-57
2022/09/19 07:16:21;;;;;;;0.40;0.20;;;;;;;20.66;47.64;95371.91;4970936;28;20434;-58
2022/09/19 07:18:50;;;;;;;0.50;0.33;;;;;;;20.57;47.37;95369.28;4970308;28;20925;-58
2022/09/19 07:21:18;;;;;;;0.50;0.40;;;;;;;19.41;48.56;95380.97;4970333;28;20431;-59
2022/09/19 07:23:52;;;;;;;0.50;0.40;;;;;;;19.22;49.22;95372.47;4970313;28;20439;-59
2022/09/19 07:26:21;;;;;;;0.53;0.53;;;;;;;20.74;48.27;95373.75;4970692;28;20425;-60
2022/09/19 07:28:49;;;;;;;0.50;0.30;;;;;;;21.62;46.48;95363.25;4970690;28;20440;-60
2022/09/19 07:31:24;;;;;;;0.57;0.50;;;;;;;21.49;45.87;95358.97;4970297;28;20532;-62
2022/09/19 07:33:53;;;;;;;0.40;0.30;;;;;;;22.35;44.54;95339.66;4970193;28;20467;-61
2022/09/19 07:36:23;;;;;;;0.40;0.30;;;;;;;22.32;42.36;95343.03;4970477;28;20435;-61
2022/09/19 07:38:51;;;;;;;0.40;0.20;;;;;;;22.36;42.97;95338.53;4970115;28;20478;-60
2022/09/19 07:41:19;;;;;;;0.40;0.20;;;;;;;21.46;44.45;95348.84;4970330;28;20499;-60
2022/09/19 07:43:49;;;;;;;0.50;0.30;;;;;;;21.04;44.01;95342.06;4970667;28;20497;-59
2022/09/19 07:46:18;;;;;;;0.40;0.40;;;;;;;20.86;45.05;95204.84;4970358;28;20955;-69
2022/09/19 07:48:49;;;;;;;0.50;0.50;;;;;;;21.83;42.37;95341.53;4970530;28;20432;-69
2022/09/19 07:51:17;;;;;;;0.63;0.60;;;;;;;23.01;41.15;95339.94;4970415;28;20519;-69
2022/09/19 07:53:50;;;;;;;0.40;0.30;;;;;;;23.01;41.49;95336.44;4969952;28;20476;-68
2022/09/19 07:56:18;;;;;;;0.40;0.30;;;;;;;23.57;40.65;95335.16;4970174;28;20458;-67
2022/09/19 07:58:47;;;;;;;0.40;0.20;;;;;;;24.27;37.68;95329.78;4970404;28;20432;-70
2022/09/19 08:01:15;;;;;;;0.40;0.30;;;;;;;23.64;39.03;95329.91;4970078;28;20436;-70
2022/09/19 08:03:46;;;;;;;0.40;0.30;;;;;;;24.17;40.47;95330.34;4970288;28;20425;-68
2022/09/19 08:06:16;;;;;;;0.40;0.20;;;;;;;24.35;37.70;95335.00;4970479;28;20432;-66
2022/09/19 08:08:44;;;;;;;0.40;0.30;;;;;;;24.18;37.54;95340.03;4973460;28;20435;-68
2022/09/19 08:11:12;;;;;;;0.40;0.30;;;;;;;23.15;36.22;95331.38;4973431;28;20442;-72
2022/09/19 08:13:43;;;;;;;0.40;0.30;;;;;;;22.58;37.37;95331.78;4973100;28;20833;-72
2022/09/19 08:16:11;;;;;;;0.40;0.30;;;;;;;23.45;36.55;95329.88;4973501;28;20440;-71
2022/09/19 08:18:40;;;;;;;1.80;0.50;;;;;;;23.19;35.54;95327.66;4973623;28;20523;-72
2022/09/19 08:21:09;;;;;;;0.57;0.30;;;;;;;24.15;36.53;95327.22;4973438;28;20498;-72
2022/09/19 08:23:38;;;;;;;0.40;0.30;;;;;;;24.70;36.17;95324.06;4973628;28;20432;-68
2022/09/19 08:26:10;;;;;;;0.50;0.40;;;;;;;24.46;33.30;95327.09;4973363;28;20454;-68
2022/09/19 08:28:38;;;;;;;0.40;0.30;;;;;;;24.42;34.23;95320.81;4973114;28;20431;-70
2022/09/19 08:31:07;;;;;;;1.07;0.33;;;;;;;25.06;34.79;95317.41;4973298;28;20433;-66
2022/09/19 08:33:35;;;;;;;0.60;0.40;;;;;;;23.95;34.51;95286.56;4973263;28;20429;-67
2022/09/19 08:36:04;;;;;;;2.23;0.43;;;;;;;24.55;35.45;95314.88;4973520;28;20824;-67
2022/09/19 08:38:33;;;;;;;0.40;0.20;;;;;;;26.09;31.42;95306.22;4973091;28;20480;-66
2022/09/19 08:41:44;;;;;;;0.50;0.47;;;;;;;26.04;31.28;95296.47;4973378;28;20954;-65
2022/09/19 08:44:19;;;;;;;0.50;0.30;;;;;;;25.05;32.51;95297.63;4972744;28;20824;-66
2022/09/19 08:46:57;;;;;;;0.30;0.20;;;;;;;24.25;34.93;95299.56;4972975;28;20433;-66
2022/09/19 08:49:29;;;;;;;0.40;0.30;;;;;;;24.74;35.75;95295.13;4973415;28;20820;-66
2022/09/19 08:52:02;;;;;;;0.40;0.30;;;;;;;25.14;32.14;95292.75;4973073;28;20442;-64
2022/09/19 08:54:34;;;;;;;0.50;0.40;;;;;;;25.88;33.48;95284.22;4972793;28;20473;-65
2022/09/19 08:57:09;;;;;;;0.33;0.27;;;;;;;26.51;31.62;95276.13;4973207;28;20422;-65
2022/09/19 08:59:41;;;;;;;0.60;0.30;;;;;;;25.77;33.19;95281.34;4973083;28;20442;-65
2022/09/19 09:02:26;;;;;;;0.30;0.20;;;;;;;26.65;30.53;95276.25;4972725;28;20457;-65
2022/09/19 09:05:16;;;;;;;0.30;0.30;;;;;;;25.85;32.55;95269.44;4972500;28;20447;-66
2022/09/19 09:07:55;;;;;;;0.40;0.20;;;;;;;25.44;31.69;95270.34;4972441;28;20427;-60
2022/09/19 09:10:40;;;;;;;0.37;0.30;;;;;;;25.22;29.02;95261.88;4972587;28;20434;-63
2022/09/19 09:13:24;;;;;;;0.50;0.30;;;;;;;25.52;30.17;95262.00;4972846;28;20447;-59
2022/09/19 09:16:22;;;;;;;0.40;0.30;;;;;;;25.55;29.32;95255.81;4972393;28;21071;-63
2022/09/19 09:19:17;;;;;;;0.40;0.30;;;;;;;27.11;28.60;95255.78;4971425;28;20813;-61
2022/09/19 09:21:59;;;;;;;0.30;0.20;;;;;;;27.19;30.01;95251.16;4972560;28;20431;-64
2022/09/19 09:24:33;;;;;;;0.30;0.30;;;;;;;28.54;29.68;95242.66;4972214;28;20544;-64
2022/09/19 09:27:09;;;;;;;0.33;0.27;;;;;;;28.68;29.30;95232.56;4972119;28;20440;-63
2022/09/19 09:29:43;;;;;;;0.80;0.80;;;;;;;26.97;29.27;95233.88;4972426;28;20432;-64
2022/09/19 09:32:19;;;;;;;0.40;0.37;;;;;;;27.71;30.81;95242.63;4972313;28;21014;-64
2022/09/19 09:34:51;;;;;;;0.40;0.30;;;;;;;27.89;28.80;95226.38;4971986;28;20481;-63
2022/09/19 09:37:24;;;;;;;0.30;0.20;;;;;;;27.71;29.48;95218.91;4972072;28;20435;-64
2022/09/19 09:40:09;;;;;;;0.30;0.30;;;;;;;27.26;29.74;95216.63;4972001;28;20494;-60
2022/09/19 09:42:45;;;;;;;0.40;0.30;;;;;;;28.28;30.32;95194.66;4972431;28;20434;-67
2022/09/19 09:45:22;;;;;;;0.37;0.23;;;;;;;27.26;32.29;95203.03;4971929;28;20449;-63
2022/09/19 09:48:01;;;;;;;0.40;0.30;;;;;;;28.42;29.32;95202.09;4972091;28;20465;-62
2022/09/19 09:50:49;;;;;;;0.30;0.30;;;;;;;28.75;29.08;95201.78;4972110;28;20439;-62
2022/09/19 09:53:31;;;;;;;0.40;0.30;;;;;;;27.62;28.64;95204.84;4972283;28;20434;-62
2022/09/19 09:56:17;;;;;;;0.30;0.20;;;;;;;29.14;27.96;95196.38;4972076;28;20492;-62
2022/09/19 09:58:57;;;;;;;0.30;0.30;;;;;;;29.46;27.48;95186.22;4972204;28;20442;-63
2022/09/19 10:04:30;;;;;;;0.50;0.50;;;;;;;29.78;27.46;95181.47;4971615;28;20888;-60
2022/09/19 10:07:11;;;;;;;0.30;0.20;;;;;;;29.61;27.34;95168.63;4972399;28;20434;-65
2022/09/19 10:09:44;;;;;;;0.50;0.43;;;;;;;29.11;27.60;95175.31;4972486;28;20438;-67
2022/09/19 10:12:22;;;;;;;0.30;0.20;;;;;;;29.54;27.64;95163.19;4971585;28;20431;-69
2022/09/19 10:15:17;;;;;;;0.30;0.20;;;;;;;29.61;29.55;95157.69;4971544;28;20495;-66
2022/09/19 10:17:51;;;;;;;0.67;0.30;;;;;;;28.82;29.38;95156.19;4971918;28;20918;-67
2022/09/19 10:20:25;;;;;;;0.30;0.30;;;;;;;29.59;27.88;95154.59;4971787;28;20434;-66
2022/09/19 10:22:58;;;;;;;0.47;0.30;;;;;;;29.81;28.16;95153.38;4971308;28;20434;-65
2022/09/19 10:25:27;;;;;;;0.40;0.30;;;;;;;29.66;28.04;95149.09;4971369;28;20499;-65
2022/09/19 10:27:56;;;;;;;0.30;0.20;;;;;;;28.42;29.28;95131.97;4971530;28;20433;-65
2022/09/19 10:30:36;;;;;;;0.50;0.50;;;;;;;29.14;32.37;95128.13;4971540;28;20446;-66
2022/09/19 10:33:28;;;;;;;0.30;0.30;;;;;;;30.92;29.47;95135.97;4971452;28;20431;-66
2022/09/19 10:35:58;;;;;;;0.30;0.27;;;;;;;30.90;29.91;95132.84;4971460;28;20492;-65
2022/09/19 10:38:27;;;;;;;0.30;0.20;;;;;;;32.03;28.59;95120.75;4971101;28;20421;-65
2022/09/19 10:40:57;;;;;;;0.30;0.20;;;;;;;30.60;29.77;95127.19;4971108;28;20449;-66
2022/09/19 10:43:30;;;;;;;0.30;0.30;;;;;;;30.21;29.50;95118.44;4971444;28;20441;-65
2022/09/19 10:46:06;;;;;;;0.40;0.30;;;;;;;30.54;29.97;95120.59;4971336;28;20464;-65
2022/09/19 10:48:39;;;;;;;0.40;0.30;;;;;;;29.36;29.98;95116.81;4971043;28;20426;-65
2022/09/19 10:51:09;;;;;;;0.40;0.30;;;;;;;28.83;30.38;95114.13;4971455;28;20436;-66
2022/09/19 10:53:41;;;;;;;0.30;0.20;;;;;;;30.63;29.04;95104.50;4971136;28;20887;-65
2022/09/19 10:56:23;;;;;;;0.30;0.20;;;;;;;31.98;28.22;95099.25;4971190;28;20897;-65
2022/09/19 10:58:59;;;;;;;0.30;0.30;;;;;;;32.05;30.55;95096.47;4971484;28;20433;-65
2022/09/19 11:01:27;;;;;;;0.40;0.30;;;;;;;31.65;29.96;95094.59;4971059;28;20429;-65
2022/09/19 11:04:03;;;;;;;0.40;0.30;;;;;;;32.32;29.08;95089.03;4970806;28;20429;-64
2022/09/19 11:06:32;;;;;;;0.50;0.33;;;;;;;32.09;29.75;95086.22;4970923;28;20428;-64
2022/09/19 11:09:07;;;;;;;0.50;0.50;;;;;;;29.89;30.51;94965.56;4971181;28;20429;-63
2022/09/19 11:11:45;;;;;;;0.40;0.30;;;;;;;31.82;30.18;95080.69;4970998;28;20421;-63
2022/09/19 11:14:31;;;;;;;0.37;0.30;;;;;;;30.80;29.89;95062.53;4970799;28;20836;-63
2022/09/19 11:17:22;;;;;;;0.40;0.30;;;;;;;31.04;28.85;95080.75;4971127;28;20476;-63
2022/09/19 11:20:16;;;;;;;0.37;0.33;;;;;;;32.22;27.31;94939.09;4970766;28;20973;-63
2022/09/19 11:23:03;;;;;;;0.40;0.30;;;;;;;32.24;29.09;95020.97;4970931;28;20831;-63
2022/09/19 11:25:37;;;;;;;0.30;0.30;;;;;;;30.95;29.55;95055.78;4970950;28;20442;-63
2022/09/19 11:28:22;;;;;;;0.30;0.20;;;;;;;30.45;29.51;95063.63;4970633;28;20421;-63
2022/09/19 11:31:05;;;;;;;0.40;0.30;;;;;;;30.79;28.21;95066.44;4970923;28;20928;-63
2022/09/19 11:33:46;;;;;;;0.40;0.40;;;;;;;31.57;28.65;95049.28;4969950;28;20441;-63
2022/09/19 11:36:45;;;;;;;0.30;0.20;;;;;;;31.71;26.07;95046.34;4969894;28;20490;-63
2022/09/19 11:39:17;;;;;;;0.73;0.73;;;;;;;29.81;27.31;95043.28;4969834;28;20476;-63
2022/09/19 11:42:20;;;;;;;0.40;0.30;;;;;;;28.47;27.72;95036.16;4969406;28;20502;-63
2022/09/19 11:44:59;;;;;;;0.40;0.30;;;;;;;28.78;28.14;94983.56;4969979;28;20438;-67
2022/09/19 11:47:50;;;;;;;0.43;0.43;;;;;;;31.14;26.98;95011.41;4970203;28;20421;-71
2022/09/19 11:50:43;;;;;;;0.30;0.20;;;;;;;31.89;24.93;95016.75;4970535;28;20892;-71
2022/09/19 11:53:30;;;;;;;0.30;0.20;;;;;;;32.91;22.11;94984.19;4969954;28;20425;-71
2022/09/19 11:56:25;;;;;;;0.30;0.20;;;;;;;31.99;24.03;94981.00;4969988;28;20472;-71
2022/09/19 11:59:01;;;;;;;0.30;0.20;;;;;;;31.88;26.03;94994.03;4970234;28;20486;-71
2022/09/19 12:01:42;;;;;;;0.30;0.30;;;;;;;31.23;25.82;95013.63;4970277;28;20433;-71
2022/09/19 12:04:21;;;;;;;0.30;0.30;;;;;;;31.02;22.14;94975.56;4970206;28;20441;-71
2022/09/19 12:07:07;;;;;;;0.40;0.30;;;;;;;31.04;25.92;95009.56;4970081;28;20433;-72
2022/09/19 12:09:43;;;;;;;0.50;0.30;;;;;;;30.09;23.25;94996.66;4970042;28;20436;-71
2022/09/19 12:12:15;;;;;;;0.40;0.40;;;;;;;30.26;22.32;94934.84;4972143;28;20789;-70
2022/09/19 12:14:49;;;;;;;0.40;0.30;;;;;;;30.98;25.28;94955.66;4970968;28;20426;-71